Time,TemperatureF,DewpointF,PressureIn,WindDirection,WindDirectionDegrees,WindSpeedMPH,WindSpeedGustMPH,Humidity,HourlyPrecipIn,Conditions,Clouds,dailyrainin,SoftwareType,DateUTC
2013-01-23 00:02:00,52.0,15.0,-100.00,NNE,24,5.0,8.0,23,-99.99,,,-99.99,,2013-01-23 08:02:00,
2013-01-23 00:12:00,53.0,16.0,-100.00,NNE,26,4.0,6.0,23,-99.99,,,-99.99,,2013-01-23 08:12:00,
2013-01-23 00:22:00,54.0,15.0,-100.00,NNE,27,5.0,7.0,21,-99.99,,,-99.99,,2013-01-23 08:22:00,
2013-01-23 00:32:00,55.0,14.0,-100.00,NNE,30,6.0,8.0,19,-99.99,,,-99.99,,2013-01-23 08:32:00,
2013-01-23 00:42:00,55.0,14.0,-100.00,NNE,33,8.0,9.0,19,-99.99,,,-99.99,,2013-01-23 08:42:00,
2013-01-23 00:52:00,53.0,15.0,-100.00,NNE,26,6.0,8.0,22,-99.99,,,-99.99,,2013-01-23 08:52:00,
2013-01-23 01:02:00,53.0,15.0,-100.00,NNE,26,6.0,8.0,22,-99.99,,,-99.99,,2013-01-23 09:02:00,
2013-01-23 01:12:00,53.0,17.0,-100.00,NE,34,6.0,8.0,24,-99.99,,,-99.99,,2013-01-23 09:12:00,
2013-01-23 01:22:00,52.0,17.0,-100.00,NE,36,4.0,6.0,25,-99.99,,,-99.99,,2013-01-23 09:22:00,
2013-01-23 01:32:00,53.0,15.0,-100.00,NNE,33,3.0,5.0,22,-99.99,,,-99.99,,2013-01-23 09:32:00,
2013-01-23 01:43:00,56.0,14.0,-100.00,NE,40,5.0,8.0,19,-99.99,,,-99.99,,2013-01-23 09:43:00,
2013-01-23 01:52:00,56.0,14.0,-100.00,NE,40,5.0,8.0,19,-99.99,,,-99.99,,2013-01-23 09:52:00,
2013-01-23 02:02:00,54.0,16.0,-100.00,NNE,18,3.0,5.0,22,-99.99,,,-99.99,,2013-01-23 10:02:00,
2013-01-23 02:12:00,52.0,17.0,-100.00,NNE,29,5.0,6.0,25,-99.99,,,-99.99,,2013-01-23 10:12:00,
2013-01-23 02:22:00,51.0,17.0,-100.00,North,9,5.0,6.0,26,-99.99,,,-99.99,,2013-01-23 10:22:00,
2013-01-23 02:32:00,52.0,17.0,-100.00,NNE,20,4.0,7.0,25,-99.99,,,-99.99,,2013-01-23 10:32:00,
2013-01-23 02:42:00,53.0,16.0,-100.00,ENE,66,8.0,9.0,23,-99.99,,,-99.99,,2013-01-23 10:42:00,
2013-01-23 02:52:00,57.0,16.0,-100.00,NE,51,9.0,13.0,20,-99.99,,,-99.99,,2013-01-23 10:52:00,
2013-01-23 03:02:00,57.0,16.0,-100.00,NE,51,9.0,13.0,20,-99.99,,,-99.99,,2013-01-23 11:02:00,
2013-01-23 03:12:00,58.0,17.0,-100.00,ENE,57,8.0,12.0,20,-99.99,,,-99.99,,2013-01-23 11:12:00,
2013-01-23 03:22:00,59.0,17.0,-100.00,ENE,57,7.0,11.0,19,-99.99,,,-99.99,,2013-01-23 11:22:00,
2013-01-23 03:32:00,60.0,16.0,-100.00,ENE,62,8.0,14.0,18,-99.99,,,-99.99,,2013-01-23 11:32:00,
2013-01-23 03:42:00,60.0,16.0,-100.00,ENE,66,8.0,13.0,18,-99.99,,,-99.99,,2013-01-23 11:42:00,
2013-01-23 03:52:00,61.0,16.0,-100.00,ENE,77,9.0,15.0,17,-99.99,,,-99.99,,2013-01-23 11:52:00,
2013-01-23 04:02:00,61.0,16.0,-100.00,ENE,77,9.0,17.0,17,-99.99,,,-99.99,,2013-01-23 12:02:00,
2013-01-23 04:12:00,61.0,16.0,-100.00,ENE,76,8.0,13.0,17,-99.99,,,-99.99,,2013-01-23 12:12:00,
2013-01-23 04:22:00,61.0,16.0,-100.00,ENE,78,8.0,15.0,17,-99.99,,,-99.99,,2013-01-23 12:22:00,
2013-01-23 04:32:00,61.0,16.0,-100.00,ENE,77,8.0,12.0,17,-99.99,,,-99.99,,2013-01-23 12:32:00,
2013-01-23 04:42:00,61.0,17.0,-100.00,ENE,75,8.0,13.0,18,-99.99,,,-99.99,,2013-01-23 12:42:00,
2013-01-23 04:52:00,61.0,17.0,-100.00,ENE,76,9.0,13.0,18,-99.99,,,-99.99,,2013-01-23 12:52:00,
2013-01-23 05:03:00,61.0,17.0,-100.00,ENE,74,9.0,15.0,18,-99.99,,,-99.99,,2013-01-23 13:03:00,
2013-01-23 05:12:00,61.0,17.0,-100.00,ENE,72,9.0,16.0,18,-99.99,,,-99.99,,2013-01-23 13:12:00,
2013-01-23 05:22:00,62.0,17.0,-100.00,ENE,69,11.0,18.0,17,-99.99,,,-99.99,,2013-01-23 13:22:00,
2013-01-23 05:33:00,62.0,17.0,-100.00,ENE,73,10.0,17.0,17,-99.99,,,-99.99,,2013-01-23 13:33:00,
2013-01-23 05:52:00,62.0,17.0,-100.00,ENE,75,10.0,17.0,17,-99.99,,,-99.99,,2013-01-23 13:52:00,
2013-01-23 06:02:00,62.0,17.0,-100.00,ENE,76,10.0,15.0,17,-99.99,,,-99.99,,2013-01-23 14:02:00,
2013-01-23 06:12:00,61.0,16.0,-100.00,ENE,78,9.0,14.0,17,-99.99,,,-99.99,,2013-01-23 14:12:00,
2013-01-23 06:23:00,62.0,17.0,-100.00,ENE,73,11.0,17.0,17,-99.99,,,-99.99,,2013-01-23 14:23:00,
2013-01-23 06:33:00,62.0,17.0,-100.00,ENE,74,10.0,17.0,17,-99.99,,,-99.99,,2013-01-23 14:33:00,
2013-01-23 06:42:00,62.0,17.0,-100.00,ENE,75,9.0,16.0,17,-99.99,,,-99.99,,2013-01-23 14:42:00,
2013-01-23 06:53:00,62.0,18.0,-100.00,ENE,71,9.0,15.0,18,-99.99,,,-99.99,,2013-01-23 14:53:00,
2013-01-23 07:02:00,62.0,18.0,-100.00,ENE,75,9.0,14.0,18,-99.99,,,-99.99,,2013-01-23 15:02:00,
2013-01-23 07:12:00,62.0,18.0,-100.00,ENE,75,9.0,14.0,18,-99.99,,,-99.99,,2013-01-23 15:12:00,
2013-01-23 07:22:00,62.0,18.0,-100.00,ENE,74,7.0,13.0,18,-99.99,,,-99.99,,2013-01-23 15:22:00,
2013-01-23 07:33:00,62.0,19.0,-100.00,ENE,69,6.0,11.0,19,-99.99,,,-99.99,,2013-01-23 15:33:00,
2013-01-23 07:43:00,62.0,20.0,-100.00,ENE,64,5.0,10.0,20,-99.99,,,-99.99,,2013-01-23 15:43:00,
2013-01-23 07:52:00,62.0,20.0,-100.00,NNE,32,3.0,6.0,20,-99.99,,,-99.99,,2013-01-23 15:52:00,
2013-01-23 08:02:00,60.0,20.0,-100.00,North,356,4.0,5.0,21,-99.99,,,-99.99,,2013-01-23 16:02:00,
2013-01-23 08:12:00,60.0,21.0,-100.00,NNE,21,4.0,6.0,22,-99.99,,,-99.99,,2013-01-23 16:12:00,
2013-01-23 08:22:00,61.0,23.0,-100.00,NE,45,3.0,5.0,23,-99.99,,,-99.99,,2013-01-23 16:22:00,
2013-01-23 08:32:00,60.0,23.0,-100.00,North,350,3.0,5.0,24,-99.99,,,-99.99,,2013-01-23 16:32:00,
2013-01-23 08:42:00,60.0,23.0,-100.00,North,350,3.0,5.0,24,-99.99,,,-99.99,,2013-01-23 16:42:00,
2013-01-23 08:52:00,61.0,23.0,-100.00,NNE,12,2.0,3.0,23,-99.99,,,-99.99,,2013-01-23 16:52:00,
2013-01-23 09:02:00,62.0,24.0,-100.00,NNE,29,2.0,5.0,23,-99.99,,,-99.99,,2013-01-23 17:02:00,
2013-01-23 09:12:00,64.0,24.0,-100.00,East,88,4.0,10.0,22,-99.99,,,-99.99,,2013-01-23 17:12:00,
2013-01-23 09:22:00,66.0,24.0,-100.00,East,98,5.0,12.0,20,-99.99,,,-99.99,,2013-01-23 17:22:00,
2013-01-23 09:33:00,67.0,23.0,-100.00,ESE,104,9.0,15.0,19,-99.99,,,-99.99,,2013-01-23 17:33:00,
2013-01-23 09:42:00,68.0,24.0,-100.00,East,94,9.0,17.0,19,-99.99,,,-99.99,,2013-01-23 17:42:00,
2013-01-23 09:52:00,69.0,25.0,-100.00,ESE,103,11.0,18.0,19,-99.99,,,-99.99,,2013-01-23 17:52:00,
2013-01-23 10:03:00,69.0,25.0,-100.00,East,95,10.0,16.0,19,-99.99,,,-99.99,,2013-01-23 18:03:00,
2013-01-23 10:12:00,69.0,26.0,-100.00,ESE,102,9.0,15.0,20,-99.99,,,-99.99,,2013-01-23 18:12:00,
2013-01-23 10:22:00,70.0,26.0,-100.00,East,97,10.0,16.0,19,-99.99,,,-99.99,,2013-01-23 18:22:00,
2013-01-23 10:32:00,70.0,26.0,-100.00,ESE,115,9.0,16.0,19,-99.99,,,-99.99,,2013-01-23 18:32:00,
2013-01-23 10:43:00,70.0,27.0,-100.00,ESE,119,7.0,12.0,20,-99.99,,,-99.99,,2013-01-23 18:43:00,
2013-01-23 10:52:00,70.0,27.0,-100.00,ESE,112,8.0,13.0,20,-99.99,,,-99.99,,2013-01-23 18:52:00,
2013-01-23 11:02:00,70.0,27.0,-100.00,ESE,106,8.0,13.0,20,-99.99,,,-99.99,,2013-01-23 19:02:00,
2013-01-23 11:12:00,70.0,27.0,-100.00,East,96,9.0,14.0,20,-99.99,,,-99.99,,2013-01-23 19:12:00,
2013-01-23 11:22:00,70.0,26.0,-100.00,East,99,8.0,13.0,19,-99.99,,,-99.99,,2013-01-23 19:22:00,
2013-01-23 11:32:00,71.0,27.0,-100.00,East,91,7.0,13.0,19,-99.99,,,-99.99,,2013-01-23 19:32:00,
2013-01-23 11:42:00,71.0,27.0,-100.00,East,89,8.0,12.0,19,-99.99,,,-99.99,,2013-01-23 19:42:00,
2013-01-23 11:52:00,71.0,27.0,-100.00,East,83,7.0,12.0,19,-99.99,,,-99.99,,2013-01-23 19:52:00,
2013-01-23 12:02:00,71.0,27.0,-100.00,East,85,7.0,11.0,19,-99.99,,,-99.99,,2013-01-23 20:02:00,
2013-01-23 12:12:00,71.0,27.0,-100.00,East,83,7.0,13.0,19,-99.99,,,-99.99,,2013-01-23 20:12:00,
2013-01-23 12:22:00,72.0,27.0,-100.00,East,98,6.0,11.0,19,-99.99,,,-99.99,,2013-01-23 20:22:00,
2013-01-23 12:32:00,72.0,27.0,-100.00,East,100,6.0,11.0,19,-99.99,,,-99.99,,2013-01-23 20:32:00,
2013-01-23 12:42:00,72.0,27.0,-100.00,East,100,6.0,11.0,19,-99.99,,,-99.99,,2013-01-23 20:42:00,
2013-01-23 12:53:00,72.0,26.0,-100.00,East,82,7.0,11.0,18,-99.99,,,-99.99,,2013-01-23 20:53:00,
2013-01-23 13:02:00,72.0,26.0,-100.00,ENE,77,6.0,9.0,18,-99.99,,,-99.99,,2013-01-23 21:02:00,
2013-01-23 13:12:00,72.0,25.0,-100.00,ESE,115,5.0,8.0,17,-99.99,,,-99.99,,2013-01-23 21:12:00,
2013-01-23 13:22:00,72.0,25.0,-100.00,ENE,77,5.0,9.0,17,-99.99,,,-99.99,,2013-01-23 21:22:00,
2013-01-23 13:33:00,73.0,27.0,-100.00,South,181,5.0,10.0,18,-99.99,,,-99.99,,2013-01-23 21:33:00,
2013-01-23 13:42:00,73.0,27.0,-100.00,South,182,4.0,8.0,18,-99.99,,,-99.99,,2013-01-23 21:42:00,
2013-01-23 13:52:00,71.0,30.0,-100.00,SSW,208,8.0,12.0,22,-99.99,,,-99.99,,2013-01-23 21:52:00,
2013-01-23 14:02:00,71.0,30.0,-100.00,SSW,201,7.0,11.0,22,-99.99,,,-99.99,,2013-01-23 22:02:00,
2013-01-23 14:12:00,70.0,30.0,-100.00,SSW,205,7.0,11.0,23,-99.99,,,-99.99,,2013-01-23 22:12:00,
2013-01-23 14:22:00,70.0,30.0,-100.00,SSW,203,7.0,11.0,23,-99.99,,,-99.99,,2013-01-23 22:22:00,
2013-01-23 14:33:00,71.0,32.0,-100.00,SSW,212,9.0,13.0,24,-99.99,,,-99.99,,2013-01-23 22:33:00,
2013-01-23 14:42:00,71.0,32.0,-100.00,SW,215,8.0,12.0,24,-99.99,,,-99.99,,2013-01-23 22:42:00,
2013-01-23 14:52:00,71.0,31.0,-100.00,SW,221,8.0,12.0,23,-99.99,,,-99.99,,2013-01-23 22:52:00,
2013-01-23 15:02:00,70.0,32.0,-100.00,SW,228,8.0,11.0,24,-99.99,,,-99.99,,2013-01-23 23:02:00,
2013-01-23 15:12:00,70.0,33.0,-100.00,WSW,240,6.0,9.0,25,-99.99,,,-99.99,,2013-01-23 23:12:00,
2013-01-23 15:22:00,69.0,33.0,-100.00,WSW,249,5.0,10.0,26,-99.99,,,-99.99,,2013-01-23 23:22:00,
2013-01-23 15:33:00,69.0,33.0,-100.00,WSW,239,7.0,12.0,26,-99.99,,,-99.99,,2013-01-23 23:33:00,
2013-01-23 15:42:00,69.0,32.0,-100.00,SW,236,7.0,12.0,25,-99.99,,,-99.99,,2013-01-23 23:42:00,
2013-01-23 15:52:00,69.0,33.0,-100.00,SW,233,9.0,13.0,26,-99.99,,,-99.99,,2013-01-23 23:52:00,
2013-01-23 16:02:00,68.0,31.0,-100.00,SW,221,8.0,13.0,25,-99.99,,,-99.99,,2013-01-24 00:02:00,
2013-01-23 16:12:00,68.0,31.0,-100.00,SW,227,6.0,11.0,25,-99.99,,,-99.99,,2013-01-24 00:12:00,
2013-01-23 16:22:00,67.0,31.0,-100.00,WSW,237,5.0,8.0,26,-99.99,,,-99.99,,2013-01-24 00:22:00,
2013-01-23 16:32:00,67.0,31.0,-100.00,SW,231,6.0,10.0,26,-99.99,,,-99.99,,2013-01-24 00:32:00,
2013-01-23 16:42:00,66.0,30.0,-100.00,SW,223,7.0,12.0,26,-99.99,,,-99.99,,2013-01-24 00:42:00,
2013-01-23 16:52:00,65.0,29.0,-100.00,SW,229,4.0,8.0,26,-99.99,,,-99.99,,2013-01-24 00:52:00,
2013-01-23 17:02:00,64.0,28.0,-100.00,SW,232,5.0,8.0,26,-99.99,,,-99.99,,2013-01-24 01:02:00,
2013-01-23 17:12:00,64.0,28.0,-100.00,SW,234,4.0,8.0,26,-99.99,,,-99.99,,2013-01-24 01:12:00,
2013-01-23 17:22:00,63.0,28.0,-100.00,SW,231,4.0,5.0,26,-99.99,,,-99.99,,2013-01-24 01:22:00,
2013-01-23 17:32:00,62.0,28.0,-100.00,WSW,252,2.0,4.0,27,-99.99,,,-99.99,,2013-01-24 01:32:00,
2013-01-23 17:42:00,62.0,28.0,-100.00,North,1,1.0,1.0,27,-99.99,,,-99.99,,2013-01-24 01:42:00,
2013-01-23 17:52:00,62.0,28.0,-100.00,NNW,327,1.0,2.0,27,-99.99,,,-99.99,,2013-01-24 01:52:00,
2013-01-23 18:02:00,62.0,28.0,-100.00,NNW,336,1.0,2.0,27,-99.99,,,-99.99,,2013-01-24 02:02:00,
2013-01-23 18:12:00,61.0,28.0,-100.00,NE,39,2.0,3.0,28,-99.99,,,-99.99,,2013-01-24 02:12:00,
2013-01-23 18:22:00,61.0,28.0,-100.00,ENE,65,2.0,3.0,28,-99.99,,,-99.99,,2013-01-24 02:22:00,
2013-01-23 18:32:00,61.0,29.0,-100.00,South,184,1.0,2.0,29,-99.99,,,-99.99,,2013-01-24 02:32:00,
2013-01-23 18:42:00,61.0,29.0,-100.00,South,184,1.0,2.0,29,-99.99,,,-99.99,,2013-01-24 02:42:00,
2013-01-23 18:52:00,61.0,29.0,-100.00,South,184,1.0,2.0,29,-99.99,,,-99.99,,2013-01-24 02:52:00,
2013-01-23 19:02:00,59.0,29.0,-100.00,East,91,1.0,3.0,32,-99.99,,,-99.99,,2013-01-24 03:02:00,
2013-01-23 19:12:00,59.0,28.0,-100.00,SSE,149,1.0,2.0,31,-99.99,,,-99.99,,2013-01-24 03:12:00,
2013-01-23 19:22:00,59.0,29.0,-100.00,NNW,343,3.0,6.0,32,-99.99,,,-99.99,,2013-01-24 03:22:00,
2013-01-23 19:32:00,57.0,30.0,-100.00,NE,37,2.0,4.0,36,-99.99,,,-99.99,,2013-01-24 03:32:00,
2013-01-23 19:42:00,57.0,30.0,-100.00,ENE,75,3.0,5.0,35,-99.99,,,-99.99,,2013-01-24 03:42:00,
2013-01-23 19:52:00,58.0,29.0,-100.00,ENE,77,2.0,3.0,33,-99.99,,,-99.99,,2013-01-24 03:52:00,
2013-01-23 20:02:00,58.0,30.0,-100.00,NNE,30,2.0,4.0,34,-99.99,,,-99.99,,2013-01-24 04:02:00,
2013-01-23 20:12:00,57.0,30.0,-100.00,ENE,67,2.0,3.0,36,-99.99,,,-99.99,,2013-01-24 04:12:00,
2013-01-23 20:22:00,57.0,30.0,-100.00,North,9,1.0,2.0,35,-99.99,,,-99.99,,2013-01-24 04:22:00,
2013-01-23 20:32:00,57.0,30.0,-100.00,East,84,1.0,4.0,36,-99.99,,,-99.99,,2013-01-24 04:32:00,
2013-01-23 20:42:00,56.0,30.0,-100.00,NE,41,3.0,4.0,37,-99.99,,,-99.99,,2013-01-24 04:42:00,
2013-01-23 20:52:00,56.0,31.0,-100.00,NE,55,4.0,5.0,38,-99.99,,,-99.99,,2013-01-24 04:52:00,
2013-01-23 21:03:00,57.0,30.0,-100.00,NE,52,4.0,6.0,36,-99.99,,,-99.99,,2013-01-24 05:03:00,
2013-01-23 21:12:00,56.0,31.0,-100.00,NE,53,4.0,7.0,38,-99.99,,,-99.99,,2013-01-24 05:12:00,
2013-01-23 21:22:00,57.0,30.0,-100.00,ENE,58,4.0,6.0,36,-99.99,,,-99.99,,2013-01-24 05:22:00,
2013-01-23 21:32:00,55.0,31.0,-100.00,NE,50,5.0,7.0,40,-99.99,,,-99.99,,2013-01-24 05:32:00,
2013-01-23 21:42:00,55.0,31.0,-100.00,NE,53,5.0,6.0,40,-99.99,,,-99.99,,2013-01-24 05:42:00,
2013-01-23 21:52:00,56.0,31.0,-100.00,NE,48,4.0,6.0,38,-99.99,,,-99.99,,2013-01-24 05:52:00,
2013-01-23 22:02:00,56.0,31.0,-100.00,NE,53,6.0,9.0,38,-99.99,,,-99.99,,2013-01-24 06:02:00,
2013-01-23 22:12:00,56.0,32.0,-100.00,NE,42,6.0,9.0,40,-99.99,,,-99.99,,2013-01-24 06:12:00,
2013-01-23 22:22:00,55.0,31.0,-100.00,ENE,64,3.0,5.0,40,-99.99,,,-99.99,,2013-01-24 06:22:00,
2013-01-23 22:32:00,56.0,32.0,-100.00,SE,124,4.0,6.0,40,-99.99,,,-99.99,,2013-01-24 06:32:00,
2013-01-23 22:42:00,57.0,31.0,-100.00,ENE,78,3.0,6.0,37,-99.99,,,-99.99,,2013-01-24 06:42:00,
2013-01-23 22:52:00,55.0,32.0,-100.00,North,11,5.0,7.0,42,-99.99,,,-99.99,,2013-01-24 06:52:00,
2013-01-23 23:02:00,55.0,33.0,-100.00,NE,45,4.0,7.0,43,-99.99,,,-99.99,,2013-01-24 07:02:00,
2013-01-23 23:12:00,55.0,33.0,-100.00,SE,135,3.0,4.0,43,-99.99,,,-99.99,,2013-01-24 07:12:00,
2013-01-23 23:22:00,56.0,33.0,-100.00,ENE,63,4.0,5.0,41,-99.99,,,-99.99,,2013-01-24 07:22:00,
2013-01-23 23:32:00,55.0,34.0,-100.00,NE,49,4.0,6.0,45,-99.99,,,-99.99,,2013-01-24 07:32:00,
2013-01-23 23:42:00,54.0,35.0,-100.00,NE,44,4.0,5.0,48,-99.99,,,-99.99,,2013-01-24 07:42:00,
2013-01-23 23:52:00,54.0,37.0,-100.00,NE,42,5.0,8.0,52,-99.99,,,-99.99,,2013-01-24 07:52:00,